sensor_id;sensor_type;location;lat;lon;timestamp;P1;durP1;ratioP1;P2;durP2;ratioP2
43994;SDS011;51687;52.160;5.298;2023-06-14T00:01:19;5.15;;;2.78;;
43994;SDS011;51687;52.160;5.298;2023-06-14T00:03:48;8.70;;;3.60;;
43994;SDS011;51687;52.160;5.298;2023-06-14T00:06:15;6.37;;;2.40;;
43994;SDS011;51687;52.160;5.298;2023-06-14T00:08:42;5.10;;;2.50;;
43994;SDS011;51687;52.160;5.298;2023-06-14T00:11:09;4.38;;;2.00;;
43994;SDS011;51687;52.160;5.298;2023-06-14T00:13:35;3.38;;;2.47;;
43994;SDS011;51687;52.160;5.298;2023-06-14T00:16:02;6.63;;;2.85;;
43994;SDS011;51687;52.160;5.298;2023-06-14T00:18:30;5.75;;;2.92;;
43994;SDS011;51687;52.160;5.298;2023-06-14T00:20:57;5.55;;;2.67;;
43994;SDS011;51687;52.160;5.298;2023-06-14T00:23:24;7.03;;;2.35;;
43994;SDS011;51687;52.160;5.298;2023-06-14T00:25:52;3.58;;;2.60;;
43994;SDS011;51687;52.160;5.298;2023-06-14T00:28:18;3.67;;;2.60;;
43994;SDS011;51687;52.160;5.298;2023-06-14T00:30:45;6.43;;;2.53;;
43994;SDS011;51687;52.160;5.298;2023-06-14T00:33:13;5.03;;;2.73;;
43994;SDS011;51687;52.160;5.298;2023-06-14T00:35:40;6.43;;;2.30;;
43994;SDS011;51687;52.160;5.298;2023-06-14T00:38:08;8.13;;;2.72;;
43994;SDS011;51687;52.160;5.298;2023-06-14T00:40:35;6.50;;;2.67;;
43994;SDS011;51687;52.160;5.298;2023-06-14T00:43:02;3.50;;;2.42;;
43994;SDS011;51687;52.160;5.298;2023-06-14T00:45:28;3.35;;;2.53;;
43994;SDS011;51687;52.160;5.298;2023-06-14T00:47:57;4.65;;;2.25;;
43994;SDS011;51687;52.160;5.298;2023-06-14T00:50:25;2.95;;;2.20;;
43994;SDS011;51687;52.160;5.298;2023-06-14T00:52:52;5.18;;;2.50;;
43994;SDS011;51687;52.160;5.298;2023-06-14T00:55:19;11.10;;;3.10;;
43994;SDS011;51687;52.160;5.298;2023-06-14T00:57:46;3.92;;;2.60;;
43994;SDS011;51687;52.160;5.298;2023-06-14T01:00:13;5.57;;;2.63;;
43994;SDS011;51687;52.160;5.298;2023-06-14T01:02:41;7.95;;;2.72;;
43994;SDS011;51687;52.160;5.298;2023-06-14T01:05:09;4.97;;;2.22;;
43994;SDS011;51687;52.160;5.298;2023-06-14T01:10:20;6.88;;;2.80;;
43994;SDS011;51687;52.160;5.298;2023-06-14T01:13:27;5.70;;;2.45;;
43994;SDS011;51687;52.160;5.298;2023-06-14T01:15:46;4.30;;;2.25;;
43994;SDS011;51687;52.160;5.298;2023-06-14T01:18:13;8.40;;;2.35;;
43994;SDS011;51687;52.160;5.298;2023-06-14T01:20:44;5.03;;;2.83;;
43994;SDS011;51687;52.160;5.298;2023-06-14T01:23:18;3.78;;;2.38;;
43994;SDS011;51687;52.160;5.298;2023-06-14T01:25:46;6.13;;;2.70;;
43994;SDS011;51687;52.160;5.298;2023-06-14T01:28:19;3.65;;;2.40;;
43994;SDS011;51687;52.160;5.298;2023-06-14T01:30:48;9.82;;;2.33;;
43994;SDS011;51687;52.160;5.298;2023-06-14T01:33:19;3.42;;;2.42;;
43994;SDS011;51687;52.160;5.298;2023-06-14T01:35:48;4.05;;;2.25;;
43994;SDS011;51687;52.160;5.298;2023-06-14T01:38:15;5.63;;;2.53;;
43994;SDS011;51687;52.160;5.298;2023-06-14T01:40:44;5.25;;;2.58;;
43994;SDS011;51687;52.160;5.298;2023-06-14T01:43:12;3.20;;;2.30;;
43994;SDS011;51687;52.160;5.298;2023-06-14T01:45:41;3.70;;;2.15;;
43994;SDS011;51687;52.160;5.298;2023-06-14T01:48:09;6.40;;;2.97;;
43994;SDS011;51687;52.160;5.298;2023-06-14T01:50:36;3.75;;;2.00;;
43994;SDS011;51687;52.160;5.298;2023-06-14T01:53:05;7.80;;;2.25;;
43994;SDS011;51687;52.160;5.298;2023-06-14T01:55:34;4.93;;;2.90;;
43994;SDS011;51687;52.160;5.298;2023-06-14T01:58:04;7.57;;;2.45;;
43994;SDS011;51687;52.160;5.298;2023-06-14T02:00:31;8.23;;;2.30;;
43994;SDS011;51687;52.160;5.298;2023-06-14T02:02:58;5.90;;;2.50;;
43994;SDS011;51687;52.160;5.298;2023-06-14T02:05:27;4.57;;;2.20;;
43994;SDS011;51687;52.160;5.298;2023-06-14T02:07:54;5.40;;;2.40;;
43994;SDS011;51687;52.160;5.298;2023-06-14T02:10:20;2.88;;;1.90;;
43994;SDS011;51687;52.160;5.298;2023-06-14T02:12:47;4.05;;;2.40;;
43994;SDS011;51687;52.160;5.298;2023-06-14T02:15:14;5.82;;;2.50;;
43994;SDS011;51687;52.160;5.298;2023-06-14T02:17:46;5.13;;;2.17;;
43994;SDS011;51687;52.160;5.298;2023-06-14T02:20:13;3.72;;;2.40;;
43994;SDS011;51687;52.160;5.298;2023-06-14T02:22:41;8.27;;;2.85;;
43994;SDS011;51687;52.160;5.298;2023-06-14T02:25:08;6.60;;;2.72;;
43994;SDS011;51687;52.160;5.298;2023-06-14T02:27:36;3.95;;;2.33;;
43994;SDS011;51687;52.160;5.298;2023-06-14T02:30:03;4.47;;;2.55;;
43994;SDS011;51687;52.160;5.298;2023-06-14T02:32:30;6.90;;;2.33;;
43994;SDS011;51687;52.160;5.298;2023-06-14T02:34:58;5.55;;;2.20;;
43994;SDS011;51687;52.160;5.298;2023-06-14T02:37:24;7.72;;;2.42;;
43994;SDS011;51687;52.160;5.298;2023-06-14T02:39:51;5.07;;;2.35;;
43994;SDS011;51687;52.160;5.298;2023-06-14T02:42:18;3.55;;;2.67;;
43994;SDS011;51687;52.160;5.298;2023-06-14T02:44:44;9.82;;;2.58;;
43994;SDS011;51687;52.160;5.298;2023-06-14T02:47:12;8.02;;;3.17;;
43994;SDS011;51687;52.160;5.298;2023-06-14T02:49:39;3.60;;;2.90;;
43994;SDS011;51687;52.160;5.298;2023-06-14T02:52:06;2.45;;;2.15;;
43994;SDS011;51687;52.160;5.298;2023-06-14T02:54:33;6.00;;;2.28;;
43994;SDS011;51687;52.160;5.298;2023-06-14T02:56:59;11.77;;;1.98;;
43994;SDS011;51687;52.160;5.298;2023-06-14T02:59:26;4.15;;;2.40;;
43994;SDS011;51687;52.160;5.298;2023-06-14T03:01:53;4.88;;;2.50;;
43994;SDS011;51687;52.160;5.298;2023-06-14T03:04:20;2.67;;;2.20;;
43994;SDS011;51687;52.160;5.298;2023-06-14T03:06:47;3.70;;;2.38;;
43994;SDS011;51687;52.160;5.298;2023-06-14T03:09:16;6.05;;;2.75;;
43994;SDS011;51687;52.160;5.298;2023-06-14T03:11:44;8.43;;;3.45;;
43994;SDS011;51687;52.160;5.298;2023-06-14T03:14:11;8.85;;;2.60;;
43994;SDS011;51687;52.160;5.298;2023-06-14T03:16:39;5.15;;;2.42;;
43994;SDS011;51687;52.160;5.298;2023-06-14T03:19:07;5.30;;;2.78;;
43994;SDS011;51687;52.160;5.298;2023-06-14T03:21:34;4.70;;;2.58;;
43994;SDS011;51687;52.160;5.298;2023-06-14T03:24:01;3.00;;;2.10;;
43994;SDS011;51687;52.160;5.298;2023-06-14T03:26:29;4.07;;;2.28;;
43994;SDS011;51687;52.160;5.298;2023-06-14T03:28:57;6.60;;;2.58;;
43994;SDS011;51687;52.160;5.298;2023-06-14T03:31:24;4.97;;;2.45;;
43994;SDS011;51687;52.160;5.298;2023-06-14T03:33:51;5.18;;;2.65;;
43994;SDS011;51687;52.160;5.298;2023-06-14T03:36:17;5.75;;;2.60;;
43994;SDS011;51687;52.160;5.298;2023-06-14T03:38:45;13.88;;;2.50;;
43994;SDS011;51687;52.160;5.298;2023-06-14T03:41:12;5.88;;;2.80;;
43994;SDS011;51687;52.160;5.298;2023-06-14T03:43:39;9.23;;;2.47;;
43994;SDS011;51687;52.160;5.298;2023-06-14T03:46:06;8.52;;;2.60;;
43994;SDS011;51687;52.160;5.298;2023-06-14T03:48:32;4.60;;;2.25;;
43994;SDS011;51687;52.160;5.298;2023-06-14T03:50:59;5.75;;;2.85;;
43994;SDS011;51687;52.160;5.298;2023-06-14T03:53:27;4.50;;;2.20;;
43994;SDS011;51687;52.160;5.298;2023-06-14T03:58:23;7.90;;;2.50;;
43994;SDS011;51687;52.160;5.298;2023-06-14T04:00:50;9.43;;;2.70;;
43994;SDS011;51687;52.160;5.298;2023-06-14T04:03:16;5.85;;;2.17;;
43994;SDS011;51687;52.160;5.298;2023-06-14T04:05:43;9.35;;;2.83;;
43994;SDS011;51687;52.160;5.298;2023-06-14T04:08:10;8.60;;;2.78;;
43994;SDS011;51687;52.160;5.298;2023-06-14T04:10:40;4.43;;;2.60;;
43994;SDS011;51687;52.160;5.298;2023-06-14T04:13:07;8.57;;;2.80;;
43994;SDS011;51687;52.160;5.298;2023-06-14T04:15:38;4.45;;;2.50;;
43994;SDS011;51687;52.160;5.298;2023-06-14T04:18:08;8.07;;;2.53;;
43994;SDS011;51687;52.160;5.298;2023-06-14T04:20:35;5.60;;;2.60;;
43994;SDS011;51687;52.160;5.298;2023-06-14T04:23:11;6.22;;;2.50;;
43994;SDS011;51687;52.160;5.298;2023-06-14T04:25:39;7.63;;;2.22;;
43994;SDS011;51687;52.160;5.298;2023-06-14T04:28:06;9.25;;;2.60;;
43994;SDS011;51687;52.160;5.298;2023-06-14T04:30:37;4.25;;;2.80;;
43994;SDS011;51687;52.160;5.298;2023-06-14T04:33:05;9.30;;;2.65;;
43994;SDS011;51687;52.160;5.298;2023-06-14T04:35:32;7.00;;;2.57;;
43994;SDS011;51687;52.160;5.298;2023-06-14T04:37:59;6.30;;;2.60;;
43994;SDS011;51687;52.160;5.298;2023-06-14T04:40:25;5.38;;;2.80;;
43994;SDS011;51687;52.160;5.298;2023-06-14T04:42:52;5.38;;;2.90;;
43994;SDS011;51687;52.160;5.298;2023-06-14T04:45:20;12.40;;;2.67;;
43994;SDS011;51687;52.160;5.298;2023-06-14T04:47:48;9.85;;;2.97;;
43994;SDS011;51687;52.160;5.298;2023-06-14T04:50:17;11.98;;;2.58;;
43994;SDS011;51687;52.160;5.298;2023-06-14T04:52:44;3.40;;;2.63;;
43994;SDS011;51687;52.160;5.298;2023-06-14T04:55:11;6.07;;;2.30;;
43994;SDS011;51687;52.160;5.298;2023-06-14T04:57:40;5.85;;;2.75;;
43994;SDS011;51687;52.160;5.298;2023-06-14T05:00:08;5.75;;;3.00;;
43994;SDS011;51687;52.160;5.298;2023-06-14T05:02:38;4.22;;;2.67;;
43994;SDS011;51687;52.160;5.298;2023-06-14T05:05:07;4.68;;;2.50;;
43994;SDS011;51687;52.160;5.298;2023-06-14T05:07:34;11.43;;;3.20;;
43994;SDS011;51687;52.160;5.298;2023-06-14T05:10:01;8.18;;;2.75;;
43994;SDS011;51687;52.160;5.298;2023-06-14T05:12:28;4.45;;;3.00;;
43994;SDS011;51687;52.160;5.298;2023-06-14T05:14:56;9.45;;;2.63;;
43994;SDS011;51687;52.160;5.298;2023-06-14T05:17:24;5.50;;;3.00;;
43994;SDS011;51687;52.160;5.298;2023-06-14T05:19:54;3.90;;;2.67;;
43994;SDS011;51687;52.160;5.298;2023-06-14T05:22:22;3.97;;;2.83;;
43994;SDS011;51687;52.160;5.298;2023-06-14T05:24:49;5.53;;;2.75;;
43994;SDS011;51687;52.160;5.298;2023-06-14T05:27:17;5.20;;;2.47;;
43994;SDS011;51687;52.160;5.298;2023-06-14T05:29:44;5.72;;;2.50;;
43994;SDS011;51687;52.160;5.298;2023-06-14T05:32:11;6.28;;;3.38;;
43994;SDS011;51687;52.160;5.298;2023-06-14T05:34:38;5.25;;;3.00;;
43994;SDS011;51687;52.160;5.298;2023-06-14T05:37:05;6.28;;;2.83;;
43994;SDS011;51687;52.160;5.298;2023-06-14T05:39:33;15.23;;;4.05;;
43994;SDS011;51687;52.160;5.298;2023-06-14T05:42:00;4.05;;;2.40;;
43994;SDS011;51687;52.160;5.298;2023-06-14T05:44:27;5.03;;;3.00;;
43994;SDS011;51687;52.160;5.298;2023-06-14T05:46:55;4.60;;;2.55;;
43994;SDS011;51687;52.160;5.298;2023-06-14T05:49:22;5.43;;;2.55;;
43994;SDS011;51687;52.160;5.298;2023-06-14T05:51:49;9.43;;;2.30;;
43994;SDS011;51687;52.160;5.298;2023-06-14T05:54:17;6.75;;;2.55;;
43994;SDS011;51687;52.160;5.298;2023-06-14T05:56:44;8.35;;;2.58;;
43994;SDS011;51687;52.160;5.298;2023-06-14T05:59:11;9.60;;;2.40;;
43994;SDS011;51687;52.160;5.298;2023-06-14T06:01:39;9.05;;;2.47;;
43994;SDS011;51687;52.160;5.298;2023-06-14T06:04:06;3.25;;;2.05;;
43994;SDS011;51687;52.160;5.298;2023-06-14T06:06:34;6.00;;;2.42;;
43994;SDS011;51687;52.160;5.298;2023-06-14T06:09:01;11.02;;;2.53;;
43994;SDS011;51687;52.160;5.298;2023-06-14T06:11:29;8.38;;;2.58;;
43994;SDS011;51687;52.160;5.298;2023-06-14T06:14:13;9.10;;;2.90;;
43994;SDS011;51687;52.160;5.298;2023-06-14T06:16:41;2.57;;;1.90;;
43994;SDS011;51687;52.160;5.298;2023-06-14T06:19:08;5.22;;;1.92;;
43994;SDS011;51687;52.160;5.298;2023-06-14T06:21:35;3.55;;;2.13;;
43994;SDS011;51687;52.160;5.298;2023-06-14T06:24:04;3.50;;;2.33;;
43994;SDS011;51687;52.160;5.298;2023-06-14T06:26:33;5.70;;;2.30;;
43994;SDS011;51687;52.160;5.298;2023-06-14T06:29:00;5.57;;;2.63;;
43994;SDS011;51687;52.160;5.298;2023-06-14T06:31:27;4.70;;;2.10;;
43994;SDS011;51687;52.160;5.298;2023-06-14T06:33:55;8.47;;;2.20;;
43994;SDS011;51687;52.160;5.298;2023-06-14T06:36:22;8.25;;;2.80;;
43994;SDS011;51687;52.160;5.298;2023-06-14T06:38:49;6.57;;;2.55;;
43994;SDS011;51687;52.160;5.298;2023-06-14T06:41:18;5.32;;;2.13;;
43994;SDS011;51687;52.160;5.298;2023-06-14T06:43:46;5.72;;;2.10;;
43994;SDS011;51687;52.160;5.298;2023-06-14T06:46:12;5.75;;;2.20;;
43994;SDS011;51687;52.160;5.298;2023-06-14T06:48:39;4.05;;;2.08;;
43994;SDS011;51687;52.160;5.298;2023-06-14T06:51:06;7.70;;;2.20;;
43994;SDS011;51687;52.160;5.298;2023-06-14T06:53:33;6.63;;;2.08;;
43994;SDS011;51687;52.160;5.298;2023-06-14T06:56:09;2.70;;;2.22;;
43994;SDS011;51687;52.160;5.298;2023-06-14T06:58:36;10.02;;;2.63;;
43994;SDS011;51687;52.160;5.298;2023-06-14T07:01:03;4.63;;;2.50;;
43994;SDS011;51687;52.160;5.298;2023-06-14T07:03:29;4.97;;;1.90;;
43994;SDS011;51687;52.160;5.298;2023-06-14T07:05:56;9.85;;;2.05;;
43994;SDS011;51687;52.160;5.298;2023-06-14T07:08:23;3.03;;;2.13;;
43994;SDS011;51687;52.160;5.298;2023-06-14T07:10:50;7.88;;;2.70;;
43994;SDS011;51687;52.160;5.298;2023-06-14T07:13:17;3.60;;;1.85;;
43994;SDS011;51687;52.160;5.298;2023-06-14T07:15:43;5.07;;;2.58;;
43994;SDS011;51687;52.160;5.298;2023-06-14T07:18:10;4.45;;;2.00;;
43994;SDS011;51687;52.160;5.298;2023-06-14T07:20:41;3.63;;;1.77;;
43994;SDS011;51687;52.160;5.298;2023-06-14T07:23:09;3.80;;;2.30;;
43994;SDS011;51687;52.160;5.298;2023-06-14T07:25:37;1.63;;;1.52;;
43994;SDS011;51687;52.160;5.298;2023-06-14T07:28:04;8.68;;;2.47;;
43994;SDS011;51687;52.160;5.298;2023-06-14T07:30:30;4.93;;;1.60;;
43994;SDS011;51687;52.160;5.298;2023-06-14T07:32:57;7.05;;;2.22;;
43994;SDS011;51687;52.160;5.298;2023-06-14T07:35:24;3.30;;;1.90;;
43994;SDS011;51687;52.160;5.298;2023-06-14T07:37:51;2.67;;;1.60;;
43994;SDS011;51687;52.160;5.298;2023-06-14T07:40:18;3.78;;;1.55;;
43994;SDS011;51687;52.160;5.298;2023-06-14T07:42:45;4.22;;;1.60;;
43994;SDS011;51687;52.160;5.298;2023-06-14T07:45:15;3.80;;;1.70;;
43994;SDS011;51687;52.160;5.298;2023-06-14T07:47:43;1.85;;;1.73;;
43994;SDS011;51687;52.160;5.298;2023-06-14T07:50:10;2.00;;;1.40;;
43994;SDS011;51687;52.160;5.298;2023-06-14T07:52:39;4.60;;;1.80;;
43994;SDS011;51687;52.160;5.298;2023-06-14T07:55:06;6.47;;;1.80;;
43994;SDS011;51687;52.160;5.298;2023-06-14T07:57:33;6.70;;;1.95;;
43994;SDS011;51687;52.160;5.298;2023-06-14T07:59:59;3.15;;;1.73;;
43994;SDS011;51687;52.160;5.298;2023-06-14T08:02:26;3.78;;;1.38;;
43994;SDS011;51687;52.160;5.298;2023-06-14T08:04:53;4.63;;;1.48;;
43994;SDS011;51687;52.160;5.298;2023-06-14T08:07:20;2.20;;;1.50;;
43994;SDS011;51687;52.160;5.298;2023-06-14T08:09:47;2.58;;;1.33;;
43994;SDS011;51687;52.160;5.298;2023-06-14T08:12:13;5.07;;;1.67;;
43994;SDS011;51687;52.160;5.298;2023-06-14T08:14:41;3.33;;;1.45;;
43994;SDS011;51687;52.160;5.298;2023-06-14T08:17:08;4.70;;;1.58;;
43994;SDS011;51687;52.160;5.298;2023-06-14T08:19:35;4.30;;;1.45;;
43994;SDS011;51687;52.160;5.298;2023-06-14T08:22:03;4.00;;;1.40;;
43994;SDS011;51687;52.160;5.298;2023-06-14T08:24:30;3.70;;;1.23;;
43994;SDS011;51687;52.160;5.298;2023-06-14T08:26:57;3.35;;;1.30;;
43994;SDS011;51687;52.160;5.298;2023-06-14T08:29:24;7.72;;;1.65;;
43994;SDS011;51687;52.160;5.298;2023-06-14T08:31:50;3.20;;;1.75;;
43994;SDS011;51687;52.160;5.298;2023-06-14T08:34:17;4.63;;;1.20;;
43994;SDS011;51687;52.160;5.298;2023-06-14T08:36:44;3.28;;;1.67;;
43994;SDS011;51687;52.160;5.298;2023-06-14T08:39:11;2.83;;;1.48;;
43994;SDS011;51687;52.160;5.298;2023-06-14T08:41:38;5.78;;;1.25;;
43994;SDS011;51687;52.160;5.298;2023-06-14T08:44:05;10.13;;;1.40;;
43994;SDS011;51687;52.160;5.298;2023-06-14T08:49:01;1.67;;;1.23;;
43994;SDS011;51687;52.160;5.298;2023-06-14T08:51:30;1.38;;;1.08;;
43994;SDS011;51687;52.160;5.298;2023-06-14T08:54:03;2.20;;;1.40;;
43994;SDS011;51687;52.160;5.298;2023-06-14T08:56:30;1.97;;;1.67;;
43994;SDS011;51687;52.160;5.298;2023-06-14T08:59:00;2.72;;;1.15;;
43994;SDS011;51687;52.160;5.298;2023-06-14T09:01:36;3.85;;;1.35;;
43994;SDS011;51687;52.160;5.298;2023-06-14T09:04:04;1.83;;;1.20;;
43994;SDS011;51687;52.160;5.298;2023-06-14T09:06:34;5.68;;;1.13;;
43994;SDS011;51687;52.160;5.298;2023-06-14T09:09:03;6.38;;;1.35;;
43994;SDS011;51687;52.160;5.298;2023-06-14T09:11:30;2.05;;;1.02;;
43994;SDS011;51687;52.160;5.298;2023-06-14T09:13:57;7.53;;;1.20;;
43994;SDS011;51687;52.160;5.298;2023-06-14T09:16:25;5.97;;;1.10;;
43994;SDS011;51687;52.160;5.298;2023-06-14T09:18:53;2.20;;;1.35;;
43994;SDS011;51687;52.160;5.298;2023-06-14T09:21:23;2.30;;;1.10;;
43994;SDS011;51687;52.160;5.298;2023-06-14T09:23:50;2.00;;;1.10;;
43994;SDS011;51687;52.160;5.298;2023-06-14T09:26:18;2.85;;;1.05;;
43994;SDS011;51687;52.160;5.298;2023-06-14T09:28:46;1.70;;;1.05;;
43994;SDS011;51687;52.160;5.298;2023-06-14T09:31:15;1.92;;;0.90;;
43994;SDS011;51687;52.160;5.298;2023-06-14T09:36:17;2.13;;;1.10;;
43994;SDS011;51687;52.160;5.298;2023-06-14T09:38:58;1.13;;;1.00;;
43994;SDS011;51687;52.160;5.298;2023-06-14T09:44:06;3.00;;;1.10;;
43994;SDS011;51687;52.160;5.298;2023-06-14T09:46:37;1.20;;;1.00;;
43994;SDS011;51687;52.160;5.298;2023-06-14T09:49:05;1.57;;;1.10;;
43994;SDS011;51687;52.160;5.298;2023-06-14T09:51:33;1.17;;;1.08;;
43994;SDS011;51687;52.160;5.298;2023-06-14T09:54:02;5.80;;;1.20;;
43994;SDS011;51687;52.160;5.298;2023-06-14T09:56:36;2.60;;;1.10;;
43994;SDS011;51687;52.160;5.298;2023-06-14T09:59:06;7.45;;;1.10;;
43994;SDS011;51687;52.160;5.298;2023-06-14T10:01:39;3.17;;;1.10;;
43994;SDS011;51687;52.160;5.298;2023-06-14T10:04:08;1.48;;;1.00;;
43994;SDS011;51687;52.160;5.298;2023-06-14T10:06:39;1.30;;;1.00;;
43994;SDS011;51687;52.160;5.298;2023-06-14T10:09:08;1.92;;;1.10;;
43994;SDS011;51687;52.160;5.298;2023-06-14T10:11:36;3.45;;;1.00;;
43994;SDS011;51687;52.160;5.298;2023-06-14T10:14:05;2.67;;;1.02;;
43994;SDS011;51687;52.160;5.298;2023-06-14T10:22:06;5.47;;;1.08;;
43994;SDS011;51687;52.160;5.298;2023-06-14T10:24:44;3.10;;;1.40;;
43994;SDS011;51687;52.160;5.298;2023-06-14T10:27:15;1.95;;;1.17;;
43994;SDS011;51687;52.160;5.298;2023-06-14T10:32:20;2.20;;;1.27;;
43994;SDS011;51687;52.160;5.298;2023-06-14T10:34:56;3.13;;;1.00;;
43994;SDS011;51687;52.160;5.298;2023-06-14T10:37:24;6.05;;;1.05;;
43994;SDS011;51687;52.160;5.298;2023-06-14T10:39:51;1.15;;;1.05;;
43994;SDS011;51687;52.160;5.298;2023-06-14T10:42:19;1.85;;;0.90;;
43994;SDS011;51687;52.160;5.298;2023-06-14T10:44:52;3.33;;;1.20;;
43994;SDS011;51687;52.160;5.298;2023-06-14T10:47:34;3.38;;;0.93;;
43994;SDS011;51687;52.160;5.298;2023-06-14T10:50:06;0.98;;;0.98;;
43994;SDS011;51687;52.160;5.298;2023-06-14T10:52:35;1.10;;;1.00;;
43994;SDS011;51687;52.160;5.298;2023-06-14T10:55:14;4.10;;;1.30;;
43994;SDS011;51687;52.160;5.298;2023-06-14T10:57:44;5.28;;;1.02;;
43994;SDS011;51687;52.160;5.298;2023-06-14T11:00:18;1.95;;;1.10;;
43994;SDS011;51687;52.160;5.298;2023-06-14T11:05:26;1.35;;;1.00;;
43994;SDS011;51687;52.160;5.298;2023-06-14T11:12:51;4.03;;;1.02;;
43994;SDS011;51687;52.160;5.298;2023-06-14T11:15:20;1.48;;;0.75;;
43994;SDS011;51687;52.160;5.298;2023-06-14T11:17:51;3.10;;;0.77;;
43994;SDS011;51687;52.160;5.298;2023-06-14T11:20:19;1.67;;;0.80;;
43994;SDS011;51687;52.160;5.298;2023-06-14T11:22:49;1.23;;;1.10;;
43994;SDS011;51687;52.160;5.298;2023-06-14T11:25:17;2.87;;;1.00;;
43994;SDS011;51687;52.160;5.298;2023-06-14T11:27:45;4.65;;;1.30;;
43994;SDS011;51687;52.160;5.298;2023-06-14T11:30:12;1.03;;;1.00;;
43994;SDS011;51687;52.160;5.298;2023-06-14T11:32:40;2.20;;;0.98;;
43994;SDS011;51687;52.160;5.298;2023-06-14T11:35:07;2.70;;;1.40;;
43994;SDS011;51687;52.160;5.298;2023-06-14T11:37:36;1.73;;;0.90;;
43994;SDS011;51687;52.160;5.298;2023-06-14T11:40:04;2.25;;;1.25;;
43994;SDS011;51687;52.160;5.298;2023-06-14T11:42:41;3.00;;;0.95;;
43994;SDS011;51687;52.160;5.298;2023-06-14T11:45:09;5.07;;;1.23;;
43994;SDS011;51687;52.160;5.298;2023-06-14T11:47:37;2.20;;;1.00;;
43994;SDS011;51687;52.160;5.298;2023-06-14T11:50:06;3.50;;;1.10;;
43994;SDS011;51687;52.160;5.298;2023-06-14T11:52:35;4.32;;;1.10;;
43994;SDS011;51687;52.160;5.298;2023-06-14T11:55:03;1.52;;;0.95;;
43994;SDS011;51687;52.160;5.298;2023-06-14T11:57:34;3.60;;;1.00;;
43994;SDS011;51687;52.160;5.298;2023-06-14T12:00:08;1.33;;;1.08;;
43994;SDS011;51687;52.160;5.298;2023-06-14T12:02:38;2.92;;;1.20;;
43994;SDS011;51687;52.160;5.298;2023-06-14T12:05:08;2.05;;;1.40;;
43994;SDS011;51687;52.160;5.298;2023-06-14T12:07:40;1.00;;;0.90;;
43994;SDS011;51687;52.160;5.298;2023-06-14T12:10:08;1.20;;;1.10;;
43994;SDS011;51687;52.160;5.298;2023-06-14T12:12:36;4.85;;;1.00;;
43994;SDS011;51687;52.160;5.298;2023-06-14T12:15:04;4.10;;;1.02;;
43994;SDS011;51687;52.160;5.298;2023-06-14T12:17:33;2.00;;;0.93;;
43994;SDS011;51687;52.160;5.298;2023-06-14T12:20:11;2.83;;;1.30;;
43994;SDS011;51687;52.160;5.298;2023-06-14T12:22:53;1.08;;;0.80;;
43994;SDS011;51687;52.160;5.298;2023-06-14T12:25:32;4.80;;;0.82;;
43994;SDS011;51687;52.160;5.298;2023-06-14T12:28:04;2.78;;;0.90;;
43994;SDS011;51687;52.160;5.298;2023-06-14T12:30:32;4.03;;;1.15;;
43994;SDS011;51687;52.160;5.298;2023-06-14T12:33:01;2.05;;;0.80;;
43994;SDS011;51687;52.160;5.298;2023-06-14T12:35:28;2.45;;;1.05;;
43994;SDS011;51687;52.160;5.298;2023-06-14T12:37:57;2.47;;;1.02;;
43994;SDS011;51687;52.160;5.298;2023-06-14T12:40:24;2.05;;;1.00;;
43994;SDS011;51687;52.160;5.298;2023-06-14T12:42:52;2.15;;;1.15;;
43994;SDS011;51687;52.160;5.298;2023-06-14T12:45:20;2.73;;;1.20;;
43994;SDS011;51687;52.160;5.298;2023-06-14T12:47:47;4.97;;;1.00;;
43994;SDS011;51687;52.160;5.298;2023-06-14T12:50:14;2.05;;;1.27;;
43994;SDS011;51687;52.160;5.298;2023-06-14T12:52:42;1.20;;;0.98;;
43994;SDS011;51687;52.160;5.298;2023-06-14T12:55:09;3.35;;;0.98;;
43994;SDS011;51687;52.160;5.298;2023-06-14T12:57:36;1.07;;;0.90;;
43994;SDS011;51687;52.160;5.298;2023-06-14T13:00:04;2.15;;;1.10;;
43994;SDS011;51687;52.160;5.298;2023-06-14T13:02:33;3.00;;;1.00;;
43994;SDS011;51687;52.160;5.298;2023-06-14T13:05:01;4.13;;;1.02;;
43994;SDS011;51687;52.160;5.298;2023-06-14T13:07:30;1.40;;;1.05;;
43994;SDS011;51687;52.160;5.298;2023-06-14T13:09:57;2.77;;;1.10;;
43994;SDS011;51687;52.160;5.298;2023-06-14T13:12:24;4.57;;;1.60;;
43994;SDS011;51687;52.160;5.298;2023-06-14T13:14:51;3.60;;;1.20;;
43994;SDS011;51687;52.160;5.298;2023-06-14T13:17:18;1.83;;;1.05;;
43994;SDS011;51687;52.160;5.298;2023-06-14T13:19:46;1.95;;;1.10;;
43994;SDS011;51687;52.160;5.298;2023-06-14T13:22:13;1.23;;;0.95;;
43994;SDS011;51687;52.160;5.298;2023-06-14T13:24:40;1.80;;;1.20;;
43994;SDS011;51687;52.160;5.298;2023-06-14T13:27:07;3.63;;;1.27;;
43994;SDS011;51687;52.160;5.298;2023-06-14T13:29:34;2.70;;;1.17;;
43994;SDS011;51687;52.160;5.298;2023-06-14T13:32:02;2.85;;;1.00;;
43994;SDS011;51687;52.160;5.298;2023-06-14T13:34:30;2.97;;;1.10;;
43994;SDS011;51687;52.160;5.298;2023-06-14T13:36:57;2.67;;;1.73;;
43994;SDS011;51687;52.160;5.298;2023-06-14T13:39:25;1.58;;;1.20;;
43994;SDS011;51687;52.160;5.298;2023-06-14T13:41:53;3.72;;;1.13;;
43994;SDS011;51687;52.160;5.298;2023-06-14T13:44:20;4.43;;;1.03;;
43994;SDS011;51687;52.160;5.298;2023-06-14T13:46:47;7.00;;;0.93;;
43994;SDS011;51687;52.160;5.298;2023-06-14T13:49:15;2.53;;;0.98;;
43994;SDS011;51687;52.160;5.298;2023-06-14T13:51:42;1.45;;;1.35;;
43994;SDS011;51687;52.160;5.298;2023-06-14T13:54:11;3.70;;;1.03;;
43994;SDS011;51687;52.160;5.298;2023-06-14T13:56:38;2.75;;;1.10;;
43994;SDS011;51687;52.160;5.298;2023-06-14T13:59:05;1.55;;;1.10;;
43994;SDS011;51687;52.160;5.298;2023-06-14T14:01:32;2.63;;;1.10;;
43994;SDS011;51687;52.160;5.298;2023-06-14T14:03:59;1.52;;;0.90;;
43994;SDS011;51687;52.160;5.298;2023-06-14T14:06:26;2.38;;;1.05;;
43994;SDS011;51687;52.160;5.298;2023-06-14T14:08:53;2.25;;;0.98;;
43994;SDS011;51687;52.160;5.298;2023-06-14T14:11:20;1.15;;;1.00;;
43994;SDS011;51687;52.160;5.298;2023-06-14T14:13:47;2.03;;;1.00;;
43994;SDS011;51687;52.160;5.298;2023-06-14T14:16:14;2.55;;;1.15;;
43994;SDS011;51687;52.160;5.298;2023-06-14T14:18:41;2.25;;;1.25;;
43994;SDS011;51687;52.160;5.298;2023-06-14T14:21:08;2.53;;;1.20;;
43994;SDS011;51687;52.160;5.298;2023-06-14T14:23:35;3.10;;;1.17;;
43994;SDS011;51687;52.160;5.298;2023-06-14T14:26:04;3.50;;;1.08;;
43994;SDS011;51687;52.160;5.298;2023-06-14T14:28:31;3.07;;;1.00;;
43994;SDS011;51687;52.160;5.298;2023-06-14T14:30:59;2.65;;;1.10;;
43994;SDS011;51687;52.160;5.298;2023-06-14T14:33:26;2.15;;;0.82;;
43994;SDS011;51687;52.160;5.298;2023-06-14T14:35:53;2.05;;;0.88;;
43994;SDS011;51687;52.160;5.298;2023-06-14T14:38:21;1.27;;;1.00;;
43994;SDS011;51687;52.160;5.298;2023-06-14T14:40:48;3.43;;;1.10;;
43994;SDS011;51687;52.160;5.298;2023-06-14T14:43:15;2.60;;;1.60;;
43994;SDS011;51687;52.160;5.298;2023-06-14T14:45:42;3.70;;;1.20;;
43994;SDS011;51687;52.160;5.298;2023-06-14T14:48:09;1.60;;;1.15;;
43994;SDS011;51687;52.160;5.298;2023-06-14T14:50:37;1.80;;;0.98;;
43994;SDS011;51687;52.160;5.298;2023-06-14T14:53:05;2.53;;;0.97;;
43994;SDS011;51687;52.160;5.298;2023-06-14T14:58:03;1.50;;;0.85;;
43994;SDS011;51687;52.160;5.298;2023-06-14T15:00:33;4.03;;;0.93;;
43994;SDS011;51687;52.160;5.298;2023-06-14T15:03:00;4.40;;;0.90;;
43994;SDS011;51687;52.160;5.298;2023-06-14T15:05:27;1.92;;;0.98;;
43994;SDS011;51687;52.160;5.298;2023-06-14T15:07:55;0.70;;;0.70;;
43994;SDS011;51687;52.160;5.298;2023-06-14T15:10:22;2.50;;;0.83;;
43994;SDS011;51687;52.160;5.298;2023-06-14T15:12:50;1.58;;;0.82;;
43994;SDS011;51687;52.160;5.298;2023-06-14T15:15:17;1.87;;;0.90;;
43994;SDS011;51687;52.160;5.298;2023-06-14T15:17:44;3.38;;;0.90;;
43994;SDS011;51687;52.160;5.298;2023-06-14T15:20:11;1.93;;;0.93;;
43994;SDS011;51687;52.160;5.298;2023-06-14T15:22:40;1.67;;;0.80;;
43994;SDS011;51687;52.160;5.298;2023-06-14T15:25:08;2.17;;;0.90;;